Time;durP1;ratioP1;P1;durP2;ratioP2;P2;SDS_P1;SDS_P2;PMS_P1;PMS_P2;Temp;Humidity;BMP_temperature;BMP_pressure;BME280_temperature;BME280_humidity;BME280_pressure;Samples;Min_cycle;Max_cycle;Signal;HPM_P1;HPM_P2
2021/09/03 00:00:08;;;;;;;35.42;17.05;;;;;;;16.54;88.47;102405.59;5039947;28;20096;-61
2021/09/03 00:02:39;;;;;;;41.67;17.35;;;;;;;16.55;88.62;102402.78;5044829;28;20148;-60
2021/09/03 00:05:10;;;;;;;35.17;16.67;;;;;;;16.53;88.43;102396.81;5036536;28;20049;-61
2021/09/03 00:07:37;;;;;;;35.90;17.05;;;;;;;16.53;88.22;102391.50;5042603;28;20223;-62
2021/09/03 00:10:05;;;;;;;35.40;15.80;;;;;;;16.53;88.63;102394.16;5033792;28;20134;-61
2021/09/03 00:12:31;;;;;;;;;;;;;;;16.49;88.84;102386.66;5044761;28;20135;-61
2021/09/03 00:14:58;;;;;;;35.00;16.77;;;;;;;16.43;89.70;102385.44;5038147;28;20015;-60
2021/09/03 00:17:28;;;;;;;33.80;17.00;;;;;;;16.45;88.90;102390.59;5044591;28;20064;-61
2021/09/03 00:19:54;;;;;;;39.08;16.90;;;;;;;16.43;88.72;102389.91;5039461;28;20148;-60
2021/09/03 00:22:21;;;;;;;35.38;17.42;;;;;;;16.41;89.33;102384.75;5038553;28;20111;-61
2021/09/03 00:24:47;;;;;;;36.85;17.33;;;;;;;16.40;89.57;102377.78;5045236;28;20102;-61
2021/09/03 00:27:14;;;;;;;34.25;17.02;;;;;;;16.39;89.77;102382.25;5037177;28;20127;-61
2021/09/03 00:29:41;;;;;;;37.63;18.40;;;;;;;16.39;89.99;102378.78;5045693;28;20136;-61
2021/09/03 00:32:07;;;;;;;33.67;16.83;;;;;;;16.36;89.17;102377.22;5039044;28;20540;-61
2021/09/03 00:34:34;;;;;;;38.15;17.08;;;;;;;16.33;90.09;102382.00;5039971;28;20155;-61
2021/09/03 00:37:00;;;;;;;37.50;18.00;;;;;;;16.33;89.94;102385.47;5033511;28;20139;-60
2021/09/03 00:39:27;;;;;;;33.45;17.02;;;;;;;16.32;90.22;102377.69;5045068;28;20096;-60
2021/09/03 00:41:53;;;;;;;40.83;18.00;;;;;;;16.29;89.99;102386.75;5042445;28;20088;-61
2021/09/03 00:44:20;;;;;;;33.20;17.38;;;;;;;16.29;90.49;102377.97;5039907;28;20210;-61
2021/09/03 00:46:46;;;;;;;34.17;17.30;;;;;;;16.26;90.51;102381.75;5043619;28;20139;-61
2021/09/03 00:49:13;;;;;;;35.28;17.98;;;;;;;16.24;90.40;102380.22;5035045;28;20634;-61
2021/09/03 00:51:40;;;;;;;30.33;15.82;;;;;;;16.25;90.23;102372.16;5038255;28;20106;-60
2021/09/03 00:54:07;;;;;;;38.47;17.63;;;;;;;16.23;91.30;102371.47;5039322;28;20132;-61
2021/09/03 00:56:34;;;;;;;35.55;15.82;;;;;;;16.26;90.09;102365.84;5040240;28;20829;-61
2021/09/03 00:59:01;;;;;;;36.47;17.23;;;;;;;16.22;91.19;102364.47;5044917;28;20183;-61
2021/09/03 01:01:27;;;;;;;33.67;17.13;;;;;;;16.18;91.14;102358.63;5036353;28;20178;-61
2021/09/03 01:03:54;;;;;;;39.70;17.75;;;;;;;16.19;91.00;102359.47;5039452;28;20059;-61
2021/09/03 01:06:21;;;;;;;38.58;18.42;;;;;;;16.17;90.79;102358.78;5035134;28;20107;-61
2021/09/03 01:08:47;;;;;;;45.75;18.67;;;;;;;16.13;91.37;102357.41;5043243;28;20128;-61
2021/09/03 01:11:14;;;;;;;32.72;17.13;;;;;;;16.13;91.23;102360.91;5033713;28;20132;-61
2021/09/03 01:13:40;;;;;;;36.88;17.80;;;;;;;16.15;91.60;102352.78;5045164;28;20132;-61
2021/09/03 01:16:07;;;;;;;37.72;17.77;;;;;;;16.13;91.58;102354.75;5039562;28;20755;-61
2021/09/03 01:18:33;;;;;;;38.88;19.05;;;;;;;16.11;91.42;102348.78;5033773;28;20052;-61
2021/09/03 01:21:00;;;;;;;44.05;18.45;;;;;;;16.12;91.50;102348.63;5041506;28;20749;-60
2021/09/03 01:23:26;;;;;;;38.47;18.83;;;;;;;16.10;92.29;102347.94;5020098;28;20147;-61
2021/09/03 01:25:53;;;;;;;45.67;19.05;;;;;;;16.11;91.60;102343.47;5041751;28;20077;-58
2021/09/03 01:28:20;;;;;;;34.97;18.45;;;;;;;16.09;91.71;102342.78;5038227;28;20134;-59
2021/09/03 01:30:46;;;;;;;32.72;17.63;;;;;;;16.10;91.11;102350.59;5037155;28;20405;-61
2021/09/03 01:33:13;;;;;;;39.85;18.77;;;;;;;16.05;92.61;102350.19;5040610;28;20421;-60
2021/09/03 01:35:39;;;;;;;37.03;19.35;;;;;;;16.03;91.96;102346.84;5032713;28;20049;-59
2021/09/03 01:38:06;;;;;;;36.92;18.52;;;;;;;15.98;92.32;102344.66;5044185;28;20135;-60
2021/09/03 01:40:33;;;;;;;43.05;18.98;;;;;;;15.94;92.14;102337.97;5035450;28;20142;-61
2021/09/03 01:43:00;;;;;;;36.38;18.63;;;;;;;15.91;92.89;102343.56;5044198;28;20107;-60
2021/09/03 01:45:26;;;;;;;34.92;18.83;;;;;;;15.89;92.13;102340.22;5031381;28;20153;-58
2021/09/03 01:47:52;;;;;;;43.55;20.58;;;;;;;15.89;93.16;102337.56;5039665;28;20139;-61
2021/09/03 01:50:19;;;;;;;42.53;20.80;;;;;;;15.86;93.71;102334.38;5043788;28;20049;-61
2021/09/03 01:52:46;;;;;;;42.25;21.48;;;;;;;15.84;93.77;102331.91;5036254;28;20144;-61
2021/09/03 01:55:12;;;;;;;47.50;19.90;;;;;;;15.80;93.97;102325.22;5041830;28;20135;-60
2021/09/03 01:57:38;;;;;;;37.22;21.48;;;;;;;15.80;94.14;102325.22;5015591;28;20859;-61
2021/09/03 02:00:06;;;;;;;42.45;20.40;;;;;;;15.78;93.74;102324.53;5035052;28;20548;-61
2021/09/03 02:02:33;;;;;;;42.23;20.83;;;;;;;15.76;94.09;102318.56;5036820;28;20540;-59
2021/09/03 02:04:59;;;;;;;42.80;19.65;;;;;;;15.76;93.98;102314.09;5041763;28;20273;-61
2021/09/03 02:07:26;;;;;;;43.28;20.40;;;;;;;15.73;94.21;102311.72;5044015;28;20419;-59
2021/09/03 02:09:53;;;;;;;40.58;20.35;;;;;;;15.73;93.63;102317.00;5034657;28;20088;-57
2021/09/03 02:12:19;;;;;;;40.80;21.17;;;;;;;15.71;93.80;102320.75;5037397;28;20048;-60
2021/09/03 02:14:46;;;;;;;40.30;19.80;;;;;;;15.69;94.25;102309.50;5032770;28;20096;-61
2021/09/03 02:17:12;;;;;;;38.10;20.15;;;;;;;15.69;94.50;102312.13;5042889;28;20151;-60
2021/09/03 02:19:39;;;;;;;42.05;21.45;;;;;;;15.70;94.75;102305.84;5034631;28;20084;-60
2021/09/03 02:22:06;;;;;;;40.80;21.25;;;;;;;15.69;94.19;102299.75;5040467;28;20076;-59
2021/09/03 02:24:32;;;;;;;45.50;21.70;;;;;;;15.64;94.73;102307.25;5036181;28;20048;-61
2021/09/03 02:26:59;;;;;;;40.38;20.60;;;;;;;15.59;95.41;102299.75;5033662;28;20128;-60
2021/09/03 02:29:25;;;;;;;43.78;22.23;;;;;;;15.60;95.03;102305.88;5037505;28;20133;-60
2021/09/03 02:31:54;;;;;;;54.05;22.75;;;;;;;15.57;95.64;102306.19;5031078;28;20171;-61
2021/09/03 02:34:21;;;;;;;39.00;21.27;;;;;;;15.52;95.27;102296.00;5044235;28;20138;-61
2021/09/03 02:36:48;;;;;;;51.30;21.80;;;;;;;15.52;95.66;102303.13;5036112;28;20089;-61
2021/09/03 02:39:16;;;;;;;38.25;19.75;;;;;;;15.52;95.44;102295.19;5041014;28;21121;-61
2021/09/03 02:41:43;;;;;;;39.40;20.90;;;;;;;15.50;95.59;102297.13;5030189;28;20092;-60
2021/09/03 02:44:09;;;;;;;41.85;21.85;;;;;;;15.51;95.28;102298.81;5042670;28;20085;-61
2021/09/03 02:46:37;;;;;;;37.70;20.27;;;;;;;15.47;95.98;102294.81;5041996;28;20112;-61
2021/09/03 02:49:03;;;;;;;41.42;22.60;;;;;;;15.42;96.13;102290.75;5037499;28;20128;-60
2021/09/03 02:51:30;;;;;;;41.08;20.73;;;;;;;15.40;95.92;102294.50;5041266;28;20234;-61
2021/09/03 02:53:56;;;;;;;45.25;22.27;;;;;;;15.35;95.98;102287.03;5032523;28;20088;-56
2021/09/03 02:56:23;;;;;;;42.63;19.75;;;;;;;15.39;95.74;102285.75;5033395;28;20576;-56
2021/09/03 02:58:49;;;;;;;49.45;21.20;;;;;;;15.35;95.88;102279.09;5033344;28;20132;-60
2021/09/03 03:01:16;;;;;;;41.92;20.88;;;;;;;15.35;96.11;102279.09;5039806;28;20179;-61
2021/09/03 03:03:43;;;;;;;47.92;23.77;;;;;;;15.31;96.89;102276.84;5027135;28;20107;-60
2021/09/03 03:06:09;;;;;;;46.65;22.70;;;;;;;15.22;97.95;102282.03;5032715;28;20289;-61
2021/09/03 03:08:36;;;;;;;45.92;22.67;;;;;;;15.16;98.31;102269.38;5038601;28;20469;-60
2021/09/03 03:11:02;;;;;;;44.08;21.40;;;;;;;15.18;97.26;102271.88;5030279;28;20124;-61
2021/09/03 03:13:30;;;;;;;42.60;22.42;;;;;;;15.16;97.66;102274.66;5024243;28;20045;-61
2021/09/03 03:15:56;;;;;;;39.78;21.58;;;;;;;15.15;97.79;102269.50;5032780;28;20112;-61
2021/09/03 03:18:23;;;;;;;47.40;22.95;;;;;;;15.15;98.30;102274.78;5040353;28;20053;-61
2021/09/03 03:20:50;;;;;;;46.63;23.20;;;;;;;15.11;98.56;102268.13;5040762;28;20523;-61
2021/09/03 03:23:18;;;;;;;49.38;21.80;;;;;;;15.09;98.07;102260.31;5029730;28;20587;-61
2021/09/03 03:25:44;;;;;;;42.33;22.10;;;;;;;15.06;98.89;102259.81;5036903;28;20556;-59
2021/09/03 03:28:11;;;;;;;45.92;22.73;;;;;;;15.06;98.00;102260.63;5033831;28;20126;-60
2021/09/03 03:30:38;;;;;;;45.42;22.73;;;;;;;15.02;98.99;102257.44;5040549;28;20175;-60
2021/09/03 03:33:04;;;;;;;41.50;21.42;;;;;;;15.01;99.10;102252.28;5016609;28;20521;-60
2021/09/03 03:35:31;;;;;;;46.80;22.60;;;;;;;14.97;98.97;102248.25;5038776;28;20504;-59
2021/09/03 03:37:57;;;;;;;46.95;22.85;;;;;;;14.97;99.25;102246.44;5037483;28;20258;-61
2021/09/03 03:40:24;;;;;;;47.70;23.00;;;;;;;14.96;99.25;102246.59;5033895;28;20072;-60
2021/09/03 03:42:50;;;;;;;45.72;23.98;;;;;;;14.93;99.24;102247.69;5042200;28;20131;-57
2021/09/03 03:45:16;;;;;;;51.67;23.90;;;;;;;14.92;99.41;102250.50;5035873;28;20079;-60
2021/09/03 03:47:43;;;;;;;44.58;23.90;;;;;;;14.88;99.78;102244.66;5040575;28;20284;-61
2021/09/03 03:50:10;;;;;;;51.65;24.90;;;;;;;14.84;100.00;102240.63;5028129;28;20415;-59
2021/09/03 03:52:37;;;;;;;48.95;23.23;;;;;;;14.84;100.00;102238.00;5036097;28;20057;-61
2021/09/03 03:55:04;;;;;;;51.35;23.88;;;;;;;14.85;99.64;102239.63;5041970;28;20132;-61
2021/09/03 03:57:31;;;;;;;45.50;23.27;;;;;;;14.80;99.97;102242.72;5036578;28;20053;-61
2021/09/03 03:59:58;;;;;;;52.00;24.40;;;;;;;14.83;100.00;102236.31;5042947;28;20144;-60
2021/09/03 04:02:24;;;;;;;49.33;24.00;;;;;;;14.83;100.00;102239.78;5019616;28;20485;-60
2021/09/03 04:04:51;;;;;;;52.30;24.35;;;;;;;14.82;100.00;102242.56;5039363;28;20057;-61
2021/09/03 04:07:17;;;;;;;55.10;25.33;;;;;;;14.79;100.00;102240.19;5029605;28;20056;-61
2021/09/03 04:09:44;;;;;;;51.00;24.92;;;;;;;14.72;100.00;102237.28;5044951;28;20127;-62
2021/09/03 04:12:10;;;;;;;53.58;25.15;;;;;;;14.73;100.00;102241.59;5033238;28;20146;-61
2021/09/03 04:14:37;;;;;;;43.58;23.05;;;;;;;14.72;100.00;102241.72;5043752;28;20484;-62
2021/09/03 04:17:04;;;;;;;49.38;24.83;;;;;;;14.71;100.00;102243.53;5040065;28;20088;-60
2021/09/03 04:19:30;;;;;;;49.42;24.83;;;;;;;14.69;99.84;102234.09;5033651;28;20484;-61
2021/09/03 04:21:57;;;;;;;56.00;23.67;;;;;;;14.69;99.80;102231.44;5042670;28;20941;-60
2021/09/03 04:24:23;;;;;;;53.58;26.23;;;;;;;14.67;100.00;102234.22;5023181;28;20846;-59
2021/09/03 04:26:50;;;;;;;46.95;23.13;;;;;;;14.67;100.00;102241.31;5043002;28;20140;-58
2021/09/03 04:29:16;;;;;;;47.40;23.10;;;;;;;14.65;100.00;102240.63;5040801;28;20136;-60
2021/09/03 04:31:42;;;;;;;49.75;24.33;;;;;;;14.67;99.19;102246.59;5039025;28;20140;-61
2021/09/03 04:34:09;;;;;;;52.67;25.63;;;;;;;14.64;100.00;102247.69;5043130;28;20072;-59
2021/09/03 04:36:35;;;;;;;53.10;25.65;;;;;;;14.61;99.80;102240.06;5038435;28;20136;-61
2021/09/03 04:39:02;;;;;;;49.80;26.00;;;;;;;14.59;100.00;102245.47;5046478;28;20076;-61
2021/09/03 04:41:28;;;;;;;47.90;24.70;;;;;;;14.57;100.00;102244.78;5038634;28;20088;-61
2021/09/03 04:43:56;;;;;;;55.90;25.73;;;;;;;14.53;100.00;102232.81;5045388;28;20131;-59
2021/09/03 04:46:22;;;;;;;54.42;26.20;;;;;;;14.53;100.00;102239.91;5031237;28;20910;-61
2021/09/03 04:48:49;;;;;;;53.97;26.15;;;;;;;14.49;100.00;102233.22;5037203;28;20128;-61
2021/09/03 04:51:15;;;;;;;55.40;25.92;;;;;;;14.49;100.00;102239.31;5042405;28;20159;-61
2021/09/03 04:53:41;;;;;;;55.60;25.75;;;;;;;14.50;100.00;102240.97;5037389;28;20449;-61
2021/09/03 04:56:08;;;;;;;61.60;26.27;;;;;;;14.51;100.00;102245.31;5043789;28;20199;-61
2021/09/03 04:58:34;;;;;;;56.63;26.05;;;;;;;14.59;99.98;102242.84;5037256;28;20052;-61
2021/09/03 05:01:01;;;;;;;52.00;25.50;;;;;;;14.57;99.77;102238.69;5031800;28;20235;-61
2021/09/03 05:03:28;;;;;;;52.22;26.67;;;;;;;14.75;99.65;102244.94;5032902;28;20136;-59
2021/09/03 05:05:54;;;;;;;52.92;26.67;;;;;;;14.50;100.00;102226.97;5042635;28;20120;-59
2021/09/03 05:08:22;;;;;;;52.05;27.00;;;;;;;14.54;100.00;102231.81;5044702;28;20076;-59
2021/09/03 05:10:49;;;;;;;57.85;25.55;;;;;;;14.54;99.97;102231.81;5037785;28;20128;-60
2021/09/03 05:13:15;;;;;;;51.55;26.50;;;;;;;14.57;100.00;102230.75;5040501;28;20139;-61
2021/09/03 05:15:43;;;;;;;57.28;26.15;;;;;;;14.58;100.00;102235.91;5034902;28;20136;-62
2021/09/03 05:18:10;;;;;;;56.30;25.80;;;;;;;14.54;100.00;102228.34;5039515;28;20048;-61
2021/09/03 05:20:36;;;;;;;64.50;28.20;;;;;;;14.52;100.00;102233.75;5031440;28;20049;-61
2021/09/03 05:23:03;;;;;;;53.53;26.52;;;;;;;14.56;100.00;102235.22;5039150;28;20148;-61
2021/09/03 05:25:30;;;;;;;59.35;26.90;;;;;;;14.85;99.12;102230.88;5039296;28;20141;-61
2021/09/03 05:27:56;;;;;;;56.60;26.35;;;;;;;14.76;99.31;102237.81;5037675;28;20049;-61
2021/09/03 05:30:22;;;;;;;45.83;23.90;;;;;;;14.74;98.40;102230.06;5043758;28;20477;-61
2021/09/03 05:32:49;;;;;;;59.63;26.55;;;;;;;14.75;99.92;102230.88;5033958;28;20102;-61
2021/09/03 05:35:15;;;;;;;52.35;26.67;;;;;;;14.76;99.51;102236.03;5042620;28;20132;-61
2021/09/03 05:37:42;;;;;;;52.45;27.33;;;;;;;14.75;100.00;102242.28;5029943;28;20139;-62
2021/09/03 05:40:09;;;;;;;57.95;27.40;;;;;;;14.80;99.70;102237.44;5037362;28;20168;-60
2021/09/03 05:42:36;;;;;;;64.72;28.42;;;;;;;14.85;99.47;102236.16;5040912;28;20168;-61
2021/09/03 05:45:03;;;;;;;63.15;28.30;;;;;;;14.80;99.31;102236.59;5036818;28;20333;-61
2021/09/03 05:47:30;;;;;;;60.33;27.40;;;;;;;14.73;100.00;102243.41;5041662;28;20439;-56
2021/09/03 05:49:56;;;;;;;65.35;31.90;;;;;;;14.70;100.00;102247.16;5034073;28;20211;-60
2021/09/03 05:52:23;;;;;;;58.00;26.75;;;;;;;14.70;100.00;102243.66;5035851;28;20076;-61
2021/09/03 05:54:50;;;;;;;64.07;29.45;;;;;;;14.72;100.00;102241.72;5033748;28;20055;-61
2021/09/03 05:57:16;;;;;;;61.60;28.17;;;;;;;14.68;100.00;102238.56;5039384;28;20127;-62
2021/09/03 05:59:43;;;;;;;56.67;26.98;;;;;;;14.73;100.00;102240.75;5043847;28;20055;-61
2021/09/03 06:02:09;;;;;;;63.30;29.02;;;;;;;14.87;100.00;102237.69;5031421;28;20152;-61
2021/09/03 06:04:36;;;;;;;62.25;29.27;;;;;;;15.00;100.00;102240.88;5040987;28;20476;-59
2021/09/03 06:07:02;;;;;;;56.78;27.70;;;;;;;15.04;100.00;102228.22;5030039;28;20111;-61
2021/09/03 06:09:29;;;;;;;60.92;28.48;;;;;;;15.01;100.00;102234.63;5038949;28;20582;-61
2021/09/03 06:11:57;;;;;;;61.63;29.50;;;;;;;15.23;98.69;102241.41;5037046;28;20600;-61
2021/09/03 06:14:23;;;;;;;59.47;29.20;;;;;;;15.32;98.51;102233.59;5041262;28;20052;-61
2021/09/03 06:16:50;;;;;;;60.33;27.00;;;;;;;15.08;100.00;102229.59;5042759;28;20056;-61
2021/09/03 06:19:17;;;;;;;56.67;27.05;;;;;;;15.20;99.68;102235.56;5034075;28;20861;-61
2021/09/03 06:21:44;;;;;;;59.00;26.17;;;;;;;15.22;99.58;102236.25;5034041;28;20072;-61
2021/09/03 06:24:29;;;;;;;61.20;26.50;;;;;;;15.11;100.00;102233.78;5034007;28;20440;-61
2021/09/03 06:26:59;;;;;;;57.20;27.80;;;;;;;15.43;98.10;102228.97;5039858;28;20120;-61
2021/09/03 06:29:39;;;;;;;45.90;21.67;;;;;;;15.55;97.12;102234.09;5035668;28;20080;-62
2021/09/03 06:32:13;;;;;;;59.00;26.73;;;;;;;15.61;98.04;102241.44;5041247;28;20092;-61
2021/09/03 06:34:45;;;;;;;58.90;27.23;;;;;;;15.71;97.32;102236.13;5032553;28;20140;-61
2021/09/03 06:37:13;;;;;;;65.60;31.65;;;;;;;15.91;96.10;102239.53;5034755;28;20140;-61
2021/09/03 06:39:40;;;;;;;63.97;30.42;;;;;;;16.02;94.99;102232.22;5042599;28;20102;-61
2021/09/03 06:42:08;;;;;;;60.88;29.73;;;;;;;16.07;94.42;102241.53;5034082;28;22274;-61
2021/09/03 06:44:36;;;;;;;58.47;27.50;;;;;;;16.04;94.76;102236.56;5042858;28;20080;-61
2021/09/03 06:47:04;;;;;;;65.25;27.35;;;;;;;15.93;96.03;102246.31;5033422;28;20945;-61
2021/09/03 06:49:31;;;;;;;62.70;29.10;;;;;;;16.07;96.13;102237.06;5035930;28;20132;-61
2021/09/03 06:51:58;;;;;;;53.55;27.70;;;;;;;16.14;96.58;102246.09;5031755;28;20298;-60
2021/09/03 06:54:25;;;;;;;64.13;29.65;;;;;;;16.09;96.77;102235.13;5042041;28;20136;-61
2021/09/03 06:56:51;;;;;;;59.13;27.40;;;;;;;15.95;97.70;102243.53;5041266;28;20143;-59
2021/09/03 06:59:18;;;;;;;61.33;27.58;;;;;;;15.96;98.58;102243.41;5036845;28;20808;-61
2021/09/03 07:01:44;;;;;;;58.40;26.85;;;;;;;16.07;97.72;102231.75;5037599;28;20056;-61
2021/09/03 07:04:11;;;;;;;67.82;29.40;;;;;;;16.02;98.87;102248.09;5030370;28;20090;-61
2021/09/03 07:06:37;;;;;;;59.17;28.27;;;;;;;16.00;99.95;102239.47;5039744;28;20116;-61
2021/09/03 07:09:05;;;;;;;60.75;28.80;;;;;;;15.98;99.31;102244.09;5033650;28;20049;-61
2021/09/03 07:11:32;;;;;;;59.83;29.02;;;;;;;15.97;100.00;102242.41;5041414;28;20139;-60
2021/09/03 07:14:00;;;;;;;64.40;29.45;;;;;;;16.09;99.81;102240.41;5043989;28;20453;-60
2021/09/03 07:16:28;;;;;;;60.92;28.92;;;;;;;16.10;98.92;102241.25;5029934;28;20072;-61
2021/09/03 07:18:56;;;;;;;63.97;28.63;;;;;;;16.07;99.05;102244.19;5035905;28;20424;-61
2021/09/03 07:21:23;;;;;;;66.20;30.42;;;;;;;16.38;96.71;102239.38;5032446;28;20127;-62
2021/09/03 07:23:51;;;;;;;;;;;;;;;16.51;95.99;102239.84;5042826;28;20544;-61
2021/09/03 07:26:17;;;;;;;64.75;27.85;;;;;;;16.57;94.96;102238.41;5037021;28;20063;-61
2021/09/03 07:28:44;;;;;;;54.45;25.67;;;;;;;16.58;94.12;102237.41;5040249;28;20550;-61
2021/09/03 07:31:10;;;;;;;64.40;29.02;;;;;;;16.57;95.01;102235.78;5023524;28;20551;-60
2021/09/03 07:33:37;;;;;;;66.47;28.85;;;;;;;16.55;95.79;102230.63;5037916;28;20110;-61
2021/09/03 07:36:04;;;;;;;68.65;27.90;;;;;;;16.53;96.31;102229.94;5041647;28;20543;-61
2021/09/03 07:38:31;;;;;;;66.35;29.60;;;;;;;16.56;96.13;102228.78;5039853;28;20583;-61
2021/09/03 07:40:57;;;;;;;58.47;26.02;;;;;;;16.63;94.99;102227.22;5047252;28;20092;-61
2021/09/03 07:43:24;;;;;;;71.25;29.30;;;;;;;16.66;95.34;102226.94;5015517;28;20192;-61
2021/09/03 07:45:51;;;;;;;65.63;30.15;;;;;;;16.65;96.04;102230.53;5040096;28;20078;-61
2021/09/03 07:48:18;;;;;;;66.80;27.70;;;;;;;16.89;94.20;102227.28;5023460;28;20373;-61
2021/09/03 07:50:44;;;;;;;75.60;31.88;;;;;;;16.91;94.20;102220.00;5028472;28;20156;-61
2021/09/03 07:53:11;;;;;;;54.15;24.77;;;;;;;17.08;92.20;102220.16;5044277;28;20102;-61
2021/09/03 07:55:44;;;;;;;77.97;32.03;;;;;;;17.17;92.04;102224.50;5038909;28;20048;-61
2021/09/03 07:58:10;;;;;;;79.82;34.08;;;;;;;17.11;93.58;102214.53;5041458;28;20528;-62
2021/09/03 08:00:37;;;;;;;63.50;28.63;;;;;;;17.37;90.36;102223.31;5034693;28;20139;-62
2021/09/03 08:03:04;;;;;;;62.13;28.20;;;;;;;17.39;91.64;102221.34;5041880;28;20467;-61
2021/09/03 08:05:31;;;;;;;69.75;32.22;;;;;;;17.33;93.05;102224.63;5038492;28;20091;-61
2021/09/03 08:07:58;;;;;;;65.28;27.73;;;;;;;17.51;91.34;102215.75;5044240;28;20084;-62
2021/09/03 08:10:26;;;;;;;63.35;27.40;;;;;;;17.50;91.40;102216.75;5046015;28;20481;-61
2021/09/03 08:12:52;;;;;;;71.25;29.25;;;;;;;17.70;89.43;102212.00;5034241;28;20084;-61
2021/09/03 08:15:19;;;;;;;69.47;29.02;;;;;;;17.93;89.20;102218.44;5042029;28;20397;-61
2021/09/03 08:17:45;;;;;;;64.55;27.83;;;;;;;18.25;87.49;102216.03;5035355;28;20406;-59
2021/09/03 08:20:13;;;;;;;69.72;29.80;;;;;;;18.36;86.68;102215.72;5044609;28;20131;-61
2021/09/03 08:22:42;;;;;;;67.05;30.10;;;;;;;18.56;85.10;102222.41;5036753;28;20053;-61
2021/09/03 08:25:09;;;;;;;71.15;27.92;;;;;;;18.58;85.14;102215.09;5044688;28;20052;-61
2021/09/03 08:27:36;;;;;;;66.93;29.65;;;;;;;18.75;85.25;102221.22;5040733;28;20827;-62
2021/09/03 08:30:03;;;;;;;70.63;29.50;;;;;;;18.82;85.44;102216.13;5039374;28;20053;-61
2021/09/03 08:32:30;;;;;;;56.40;23.23;;;;;;;19.03;83.93;102217.41;5044634;28;20144;-61
2021/09/03 08:34:57;;;;;;;75.80;30.20;;;;;;;19.06;83.63;102214.44;5038235;28;20107;-62
2021/09/03 08:37:23;;;;;;;74.10;31.40;;;;;;;19.33;82.58;102210.56;5041751;28;20057;-62
2021/09/03 08:39:50;;;;;;;83.68;32.72;;;;;;;19.42;82.43;102214.84;5034684;28;20151;-61
2021/09/03 08:42:17;;;;;;;72.50;30.10;;;;;;;19.62;81.45;102209.13;5035530;28;20045;-62
2021/09/03 08:44:44;;;;;;;74.95;31.52;;;;;;;19.70;80.65;102212.59;5045747;28;20603;-61
2021/09/03 08:47:12;;;;;;;72.28;30.90;;;;;;;19.88;80.78;102216.88;5038675;28;20080;-62
2021/09/03 08:49:39;;;;;;;66.10;28.73;;;;;;;20.09;79.69;102208.25;5045451;28;20480;-62
2021/09/03 08:52:05;;;;;;;80.38;31.20;;;;;;;20.30;78.72;102210.28;5037569;28;20135;-62
2021/09/03 08:54:32;;;;;;;68.30;30.27;;;;;;;20.35;78.60;102216.75;5044530;28;20440;-62
2021/09/03 08:56:59;;;;;;;69.53;31.02;;;;;;;20.47;78.21;102211.00;5036188;28;20137;-62
2021/09/03 08:59:25;;;;;;;67.22;28.98;;;;;;;20.54;78.71;102217.25;5044486;28;20076;-62
2021/09/03 09:02:11;;;;;;;79.80;32.03;;;;;;;20.69;77.14;102217.34;5042819;28;20092;-61
2021/09/03 09:04:40;;;;;;;70.43;28.85;;;;;;;20.82;77.05;102220.25;5037185;28;20083;-62
2021/09/03 09:07:07;;;;;;;68.55;29.33;;;;;;;20.97;76.42;102216.78;5041954;28;20052;-62
2021/09/03 09:09:37;;;;;;;68.03;28.20;;;;;;;21.13;75.27;102221.97;5037055;28;20128;-62
2021/09/03 09:12:16;;;;;;;72.47;29.20;;;;;;;21.19;74.57;102223.03;5043155;28;20057;-63
2021/09/03 09:15:09;;;;;;;63.20;28.15;;;;;;;21.26;73.30;102224.81;5039159;28;20083;-62
2021/09/03 09:17:39;;;;;;;72.20;27.80;;;;;;;21.42;74.32;102217.63;5038846;28;20083;-62
2021/09/03 09:20:08;;;;;;;65.82;26.55;;;;;;;21.60;72.21;102222.63;5035424;28;20119;-62
2021/09/03 09:22:53;;;;;;;62.10;26.98;;;;;;;21.83;71.42;102211.81;5041602;28;20140;-62
2021/09/03 09:25:23;;;;;;;66.38;28.23;;;;;;;21.81;70.98;102219.19;5039040;28;20081;-63
2021/09/03 09:27:50;;;;;;;66.07;27.92;;;;;;;21.95;70.50;102214.81;5041268;28;20863;-62
2021/09/03 09:30:27;;;;;;;69.80;27.67;;;;;;;22.07;69.94;102214.16;5045318;28;20052;-61
2021/09/03 09:33:11;;;;;;;;;;;;;;;22.31;68.24;102217.53;5031569;28;20106;-62
2021/09/03 09:35:49;;;;;;;65.22;25.85;;;;;;;22.30;69.00;102208.66;5042773;28;20008;-62
2021/09/03 09:38:18;;;;;;;63.55;27.73;;;;;;;22.36;69.32;102208.91;5033192;28;20044;-63
2021/09/03 09:40:49;;;;;;;66.10;26.95;;;;;;;22.49;69.38;102203.69;5043862;28;20168;-62
2021/09/03 09:43:39;;;;;;;67.00;26.55;;;;;;;22.70;69.01;102202.84;5035325;28;20588;-62
2021/09/03 09:46:17;;;;;;;62.38;25.67;;;;;;;22.88;66.77;102200.50;5039667;28;20091;-62
2021/09/03 09:48:49;;;;;;;71.05;27.60;;;;;;;23.01;66.16;102191.75;5031656;28;20052;-62
2021/09/03 09:51:31;;;;;;;70.13;26.63;;;;;;;23.14;64.65;102191.03;5042317;28;20106;-63
2021/09/03 09:54:10;;;;;;;63.55;24.35;;;;;;;23.30;63.29;102189.88;5036462;28;20122;-63
2021/09/03 09:56:39;;;;;;;62.13;26.67;;;;;;;23.37;63.79;102192.63;5041085;28;20445;-63
2021/09/03 09:59:07;;;;;;;59.70;25.73;;;;;;;23.58;64.03;102189.81;5032386;28;20084;-62
2021/09/03 10:01:36;;;;;;;69.82;27.42;;;;;;;23.89;63.47;102183.13;5014464;28;20144;-62
2021/09/03 10:04:06;;;;;;;74.13;26.63;;;;;;;23.91;63.13;102189.13;5039426;28;20049;-62
2021/09/03 10:06:34;;;;;;;68.82;27.02;;;;;;;24.01;63.20;102186.06;5031681;28;20051;-63
2021/09/03 10:09:01;;;;;;;;;;;;;;;24.21;62.07;102188.78;5043853;28;20049;-62
2021/09/03 10:11:32;;;;;;;62.45;24.85;;;;;;;24.32;62.88;102180.13;5033994;28;19934;-63
2021/09/03 10:13:59;;;;;;;71.23;27.67;;;;;;;24.35;61.68;102178.91;5039395;28;20153;-62
2021/09/03 10:16:26;;;;;;;65.30;27.38;;;;;;;24.47;61.08;102179.94;5036379;28;20306;-63
2021/09/03 10:18:58;;;;;;;65.55;28.40;;;;;;;24.63;60.88;102182.22;5043093;28;20076;-63
2021/09/03 10:21:27;;;;;;;60.35;28.27;;;;;;;24.76;60.74;102185.94;5022603;28;20159;-63
2021/09/03 10:24:10;;;;;;;65.53;27.60;;;;;;;24.83;59.67;102182.19;5036621;28;20129;-63
2021/09/03 10:26:40;;;;;;;59.78;25.45;;;;;;;24.89;59.85;102177.84;5038221;28;20152;-63
2021/09/03 10:29:14;;;;;;;63.33;24.85;;;;;;;25.11;59.17;102180.28;5032446;28;20139;-63
2021/09/03 10:32:12;;;;;;;68.07;26.98;;;;;;;25.33;60.36;102183.59;5041846;28;20061;-63
2021/09/03 10:34:38;;;;;;;66.72;26.15;;;;;;;25.53;59.36;102175.44;5019602;28;20049;-63
2021/09/03 10:37:14;;;;;;;62.40;27.75;;;;;;;25.54;57.09;102180.59;5042255;28;20122;-63
2021/09/03 10:39:41;;;;;;;59.47;26.55;;;;;;;25.84;57.13;102177.34;5032081;28;20469;-63
2021/09/03 10:42:08;;;;;;;53.33;24.02;;;;;;;25.90;56.88;102176.47;5037786;28;20052;-63
2021/09/03 10:45:04;;;;;;;54.45;23.55;;;;;;;25.87;57.45;102168.03;5037074;28;20167;-63
2021/09/03 10:47:40;;;;;;;55.83;25.27;;;;;;;25.98;57.81;102165.50;5040009;28;20083;-63
2021/09/03 10:50:28;;;;;;;55.97;24.90;;;;;;;26.08;55.94;102158.81;5038134;28;20144;-63
2021/09/03 10:53:05;;;;;;;52.08;25.70;;;;;;;26.23;55.83;102153.97;5040698;28;20052;-63
2021/09/03 10:55:56;;;;;;;48.85;23.95;;;;;;;26.49;55.99;102146.72;5035446;28;20570;-63
2021/09/03 10:58:28;;;;;;;60.50;25.73;;;;;;;26.55;56.85;102141.25;5041131;28;20053;-63
2021/09/03 11:01:10;;;;;;;55.03;24.58;;;;;;;27.01;54.85;102137.31;5041507;28;20460;-63
2021/09/03 11:03:49;;;;;;;54.22;24.45;;;;;;;27.12;54.02;102137.59;5037775;28;20052;-64
2021/09/03 11:06:25;;;;;;;51.08;23.05;;;;;;;27.08;54.30;102126.44;5024715;28;20136;-63
2021/09/03 11:09:00;;;;;;;47.58;23.73;;;;;;;26.95;54.58;102123.91;5029143;28;20048;-64
2021/09/03 11:11:33;;;;;;;54.83;23.30;;;;;;;27.10;53.95;102132.41;5045074;28;20061;-63
2021/09/03 11:14:09;;;;;;;48.45;22.50;;;;;;;27.46;53.08;102128.06;5040009;28;20087;-63